createdAt,value
2023-03-13T00:02:07.558Z,0.81
2023-03-13T00:04:37.031Z,0.81
2023-03-13T00:07:07.670Z,0.80
2023-03-13T00:09:36.950Z,0.78
2023-03-13T00:12:07.920Z,0.78
2023-03-13T00:14:38.024Z,0.77
2023-03-13T00:17:08.737Z,0.78
2023-03-13T00:19:37.833Z,0.78
2023-03-13T00:22:08.316Z,0.77
2023-03-13T00:24:37.681Z,0.79
2023-03-13T00:27:08.692Z,0.78
2023-03-13T00:29:38.205Z,0.77
2023-03-13T00:32:08.637Z,0.75
2023-03-13T00:34:38.857Z,0.76
2023-03-13T00:37:09.311Z,0.76
2023-03-13T00:39:40.046Z,0.76
2023-03-13T00:42:12.520Z,0.76
2023-03-13T00:44:44.190Z,0.75
2023-03-13T00:47:15.117Z,0.76
2023-03-13T00:49:47.085Z,0.79
2023-03-13T00:52:18.600Z,0.81
2023-03-13T00:54:49.018Z,0.82
2023-03-13T00:57:19.844Z,0.83
2023-03-13T00:59:51.126Z,0.85
2023-03-13T01:02:22.278Z,0.87
2023-03-13T01:04:54.359Z,0.88
2023-03-13T01:07:27.827Z,0.90
2023-03-13T01:09:59.684Z,0.90
2023-03-13T01:12:33.160Z,0.90
2023-03-13T01:15:02.225Z,0.91
2023-03-13T01:17:34.047Z,0.90
2023-03-13T01:20:03.694Z,0.90
2023-03-13T01:22:36.352Z,0.91
2023-03-13T01:25:08.201Z,0.93
2023-03-13T01:27:37.884Z,0.94
2023-03-13T01:30:11.571Z,0.97
2023-03-13T01:32:42.491Z,0.98
2023-03-13T01:35:15.614Z,0.99
2023-03-13T01:37:44.783Z,1.00
2023-03-13T01:40:18.469Z,1.01
2023-03-13T01:42:58.010Z,1.02
2023-03-13T01:46:05.642Z,1.05
2023-03-13T01:48:49.277Z,1.05
2023-03-13T01:51:45.928Z,1.05
2023-03-13T01:54:19.045Z,1.07
2023-03-13T01:56:54.613Z,1.09
2023-03-13T01:59:32.592Z,1.12
2023-03-13T02:02:05.040Z,1.14
2023-03-13T02:04:42.757Z,1.16
2023-03-13T02:07:20.452Z,1.17
2023-03-13T02:09:55.555Z,1.17
2023-03-13T02:12:39.235Z,1.15
2023-03-13T02:15:22.187Z,1.14
2023-03-13T02:17:53.040Z,1.14
2023-03-13T02:20:48.365Z,1.16
2023-03-13T02:23:28.916Z,1.17
2023-03-13T02:25:59.229Z,1.18
2023-03-13T02:28:40.339Z,1.20
2023-03-13T02:31:13.596Z,1.21
2023-03-13T02:33:45.779Z,1.23
2023-03-13T02:36:18.943Z,1.23
2023-03-13T02:38:55.946Z,1.25
2023-03-13T02:41:28.212Z,1.26
2023-03-13T02:43:59.768Z,1.26
2023-03-13T02:46:30.464Z,1.27
2023-03-13T02:49:01.215Z,1.29
2023-03-13T02:51:39.632Z,1.31
2023-03-13T02:54:17.132Z,1.33
2023-03-13T02:56:49.903Z,1.35
2023-03-13T02:59:22.354Z,1.37
2023-03-13T03:01:55.272Z,1.40
2023-03-13T03:04:27.436Z,1.42
2023-03-13T03:06:58.670Z,1.45
2023-03-13T03:09:29.133Z,1.46
2023-03-13T03:12:03.435Z,1.47
2023-03-13T03:14:34.794Z,1.49
2023-03-13T03:17:06.824Z,1.52
2023-03-13T03:19:37.280Z,1.54
2023-03-13T03:22:11.139Z,1.55
2023-03-13T03:24:42.588Z,1.56
2023-03-13T03:27:14.466Z,1.58
2023-03-13T03:29:48.292Z,1.58
2023-03-13T03:32:19.162Z,1.59
2023-03-13T03:34:52.884Z,1.60
2023-03-13T03:37:22.843Z,1.63
2023-03-13T03:39:54.191Z,1.63
2023-03-13T03:42:27.542Z,1.64
2023-03-13T03:44:57.639Z,1.63
2023-03-13T03:47:29.584Z,1.64
2023-03-13T03:50:00.944Z,1.65
2023-03-13T03:52:31.606Z,1.66
2023-03-13T03:55:04.762Z,1.66
2023-03-13T03:57:35.365Z,1.67
2023-03-13T04:00:08.121Z,1.68
2023-03-13T04:02:43.425Z,1.67
2023-03-13T04:05:13.658Z,1.66
2023-03-13T04:07:44.345Z,1.66
2023-03-13T04:10:15.812Z,1.67
2023-03-13T04:12:48.780Z,1.67
2023-03-13T04:15:19.001Z,1.66
2023-03-13T04:17:50.035Z,1.67
2023-03-13T04:20:23.420Z,1.68
2023-03-13T04:22:53.777Z,1.69
2023-03-13T04:25:24.309Z,1.69
2023-03-13T04:27:55.699Z,1.68
2023-03-13T04:30:31.229Z,1.69
2023-03-13T04:33:10.931Z,1.70
2023-03-13T04:35:50.637Z,1.69
2023-03-13T04:38:41.792Z,1.70
2023-03-13T04:41:34.508Z,1.70
2023-03-13T04:44:24.841Z,1.70
2023-03-13T04:47:24.418Z,1.70
2023-03-13T04:50:14.456Z,1.70
2023-03-13T04:52:51.167Z,1.71
2023-03-13T04:55:40.909Z,1.72
2023-03-13T04:58:29.617Z,1.71
2023-03-13T05:01:25.972Z,1.73
2023-03-13T05:04:17.897Z,1.73
2023-03-13T05:07:04.511Z,1.75
2023-03-13T05:10:04.280Z,1.75
2023-03-13T05:13:00.809Z,1.76
2023-03-13T05:15:36.824Z,1.76
2023-03-13T05:18:26.381Z,1.76
2023-03-13T05:21:21.703Z,1.77
2023-03-13T05:24:03.383Z,1.78
2023-03-13T05:26:43.750Z,1.77
2023-03-13T05:29:27.251Z,1.76
2023-03-13T05:32:32.359Z,1.76
2023-03-13T05:35:16.705Z,1.78
2023-03-13T05:38:00.921Z,1.78
2023-03-13T05:40:53.222Z,1.79
2023-03-13T05:43:59.104Z,1.81
2023-03-13T05:46:50.683Z,1.81
2023-03-13T05:49:31.794Z,1.82
2023-03-13T05:52:16.605Z,1.82
2023-03-13T05:55:07.163Z,1.83
2023-03-13T05:58:52.576Z,1.85
2023-03-13T06:02:00.859Z,1.86
2023-03-13T06:04:37.875Z,1.87
2023-03-13T06:07:09.541Z,1.87
2023-03-13T06:09:41.336Z,1.89
2023-03-13T06:12:12.666Z,1.90
2023-03-13T06:14:43.393Z,1.92
2023-03-13T06:17:31.509Z,1.92
2023-03-13T06:20:03.518Z,1.93
2023-03-13T06:22:36.629Z,1.95
2023-03-13T06:25:07.937Z,1.96
2023-03-13T06:27:39.199Z,1.98
2023-03-13T06:30:11.913Z,2.01
2023-03-13T06:32:43.126Z,2.05
2023-03-13T06:35:13.575Z,2.07
2023-03-13T06:37:43.974Z,2.08
2023-03-13T06:40:16.540Z,2.10
2023-03-13T06:42:45.446Z,2.14
2023-03-13T06:45:15.966Z,2.15
2023-03-13T06:47:45.780Z,2.18
2023-03-13T06:50:15.766Z,2.22
2023-03-13T06:52:48.606Z,2.29
2023-03-13T06:55:18.358Z,2.36
2023-03-13T06:57:54.295Z,2.41
2023-03-13T07:00:26.500Z,2.46
2023-03-13T07:02:57.812Z,2.51
2023-03-13T07:05:26.997Z,2.57
2023-03-13T07:08:00.218Z,2.61
2023-03-13T07:10:31.810Z,2.65
2023-03-13T07:13:01.685Z,2.69
2023-03-13T07:15:31.884Z,2.76
2023-03-13T07:18:03.067Z,2.79
2023-03-13T07:20:37.021Z,2.82
2023-03-13T07:23:07.669Z,2.86
2023-03-13T07:25:38.232Z,2.92
2023-03-13T07:28:07.983Z,3.02
2023-03-13T07:30:38.721Z,3.07
2023-03-13T07:33:10.183Z,3.15
2023-03-13T07:35:41.247Z,3.21
2023-03-13T07:38:11.453Z,3.26
2023-03-13T07:40:48.497Z,3.32
2023-03-13T07:43:20.229Z,3.38
2023-03-13T07:46:03.410Z,3.43
2023-03-13T07:48:41.160Z,3.47
2023-03-13T07:51:33.509Z,3.50
2023-03-13T07:54:10.847Z,3.53
2023-03-13T07:56:42.500Z,3.57
2023-03-13T07:59:12.701Z,3.61
2023-03-13T08:01:42.529Z,3.66
2023-03-13T08:04:28.767Z,3.74
2023-03-13T08:07:00.581Z,3.84
2023-03-13T08:09:33.804Z,3.97
2023-03-13T08:12:05.298Z,4.11
2023-03-13T08:14:35.550Z,4.25
2023-03-13T08:17:05.345Z,4.36
2023-03-13T08:19:36.411Z,4.47
2023-03-13T08:26:32.755Z,4.72
2023-03-13T08:29:05.751Z,4.78
2023-03-13T08:31:55.089Z,4.87
2023-03-13T08:34:25.015Z,4.97
2023-03-13T08:36:58.627Z,5.09
2023-03-13T08:39:30.504Z,5.23
2023-03-13T08:42:03.424Z,5.34
2023-03-13T08:44:35.618Z,5.40
2023-03-13T08:47:09.068Z,5.45
2023-03-13T08:49:40.180Z,5.52
2023-03-13T08:52:12.994Z,5.62
2023-03-13T08:54:43.064Z,5.75
2023-03-13T08:57:18.747Z,5.93
2023-03-13T08:59:48.386Z,6.05
2023-03-13T09:02:22.295Z,6.14
2023-03-13T09:04:54.089Z,6.24
2023-03-13T09:07:24.934Z,6.35
2023-03-13T09:09:55.668Z,6.52
2023-03-13T09:12:30.735Z,6.65
2023-03-13T09:15:01.720Z,6.69
2023-03-13T09:17:30.948Z,6.71
2023-03-13T09:20:05.449Z,6.66
2023-03-13T09:23:28.719Z,6.68
2023-03-13T09:25:58.655Z,6.80
2023-03-13T09:28:31.081Z,6.92
2023-03-13T09:31:16.100Z,7.08
2023-03-13T09:43:54.870Z,7.55
2023-03-13T09:46:34.083Z,7.68
2023-03-13T09:49:37.110Z,7.81
2023-03-13T09:52:20.000Z,7.96
2023-03-13T09:55:25.799Z,8.03
2023-03-13T09:58:04.979Z,8.08
2023-03-13T10:00:41.889Z,8.16
2023-03-13T10:03:43.336Z,8.29
2023-03-13T10:06:23.584Z,8.46
2023-03-13T10:08:53.423Z,8.56
2023-03-13T10:11:48.912Z,8.56
2023-03-13T10:14:39.602Z,8.59
2023-03-13T10:25:08.515Z,8.49
2023-03-13T10:31:57.480Z,8.53
2023-03-13T10:34:45.576Z,8.62
2023-03-13T10:37:29.310Z,8.75
2023-03-13T10:40:23.620Z,8.92
2023-03-13T10:43:00.735Z,9.22
2023-03-13T10:45:36.942Z,9.29
2023-03-13T10:48:20.801Z,9.24
2023-03-13T10:50:54.063Z,9.12
2023-03-13T10:53:27.086Z,8.98
2023-03-13T10:56:04.381Z,8.90
2023-03-13T10:58:47.344Z,8.83
2023-03-13T11:01:34.199Z,8.80
2023-03-13T11:04:38.113Z,8.74
2023-03-13T11:07:17.232Z,8.63
2023-03-13T11:09:59.282Z,8.55
2023-03-13T11:12:30.472Z,8.54
2023-03-13T11:15:02.543Z,8.54
2023-03-13T11:17:39.296Z,8.52
2023-03-13T11:20:24.741Z,8.47
2023-03-13T11:23:11.965Z,8.43
2023-03-13T11:25:55.308Z,8.39
2023-03-13T11:29:03.125Z,8.36
2023-03-13T11:31:34.110Z,8.30
2023-03-13T11:34:08.749Z,8.26
2023-03-13T11:36:59.989Z,8.23
2023-03-13T11:39:55.781Z,8.20
2023-03-13T11:43:03.321Z,8.18
2023-03-13T11:46:00.202Z,8.15
2023-03-13T11:49:17.231Z,8.12
2023-03-13T11:52:22.044Z,8.09
2023-03-13T11:54:53.918Z,8.09
2023-03-13T11:57:35.602Z,8.07
2023-03-13T12:00:08.426Z,8.07
2023-03-13T12:03:09.350Z,8.03
2023-03-13T12:05:50.305Z,8.03
2023-03-13T12:08:26.005Z,8.04
2023-03-13T12:11:12.725Z,8.05
2023-03-13T12:13:48.198Z,8.08
2023-03-13T12:16:26.659Z,8.11
2023-03-13T12:18:58.635Z,8.13
2023-03-13T12:21:37.625Z,8.17
2023-03-13T12:24:42.198Z,8.19
2023-03-13T12:27:50.790Z,8.20
2023-03-13T12:30:33.519Z,8.17
2023-03-13T12:33:13.429Z,8.16
2023-03-13T12:35:47.540Z,8.16
2023-03-13T12:38:40.447Z,8.17
2023-03-13T12:41:28.306Z,8.19
2023-03-13T12:44:08.325Z,8.19
2023-03-13T12:47:05.746Z,8.20
2023-03-13T12:50:07.330Z,8.20
2023-03-13T12:53:11.921Z,8.18
2023-03-13T12:55:57.738Z,8.16
2023-03-13T12:58:39.453Z,8.15
2023-03-13T13:01:17.807Z,8.20
2023-03-13T13:03:49.377Z,8.25
2023-03-13T13:06:21.123Z,8.29
2023-03-13T13:08:53.463Z,8.31
2023-03-13T13:11:35.189Z,8.31
2023-03-13T13:14:27.611Z,8.29
2023-03-13T13:17:24.603Z,8.28
2023-03-13T13:19:55.888Z,8.32
2023-03-13T13:22:37.908Z,8.37
2023-03-13T13:25:14.224Z,8.42
2023-03-13T13:28:22.210Z,8.41
2023-03-13T13:30:56.312Z,8.36
2023-03-13T13:33:48.888Z,8.33
2023-03-13T13:36:21.656Z,8.29
2023-03-13T13:38:52.980Z,8.28
2023-03-13T13:41:27.389Z,8.28
2023-03-13T13:44:25.835Z,8.26
2023-03-13T13:46:59.167Z,8.26
2023-03-13T13:49:37.165Z,8.26
2023-03-13T13:52:32.723Z,8.26
2023-03-13T14:00:58.525Z,8.24
2023-03-13T14:03:43.943Z,8.24
2023-03-13T14:06:20.029Z,8.26
2023-03-13T14:08:51.968Z,8.26
2023-03-13T14:11:25.311Z,8.27
2023-03-13T14:14:20.866Z,8.29
2023-03-13T14:16:58.776Z,8.29
2023-03-13T14:19:38.471Z,8.31
2023-03-13T14:22:14.782Z,8.33
2023-03-13T14:24:57.884Z,8.36
2023-03-13T14:27:28.176Z,8.39
2023-03-13T14:30:07.243Z,8.43
2023-03-13T14:32:36.553Z,8.42
2023-03-13T14:35:10.916Z,8.40
2023-03-13T14:37:48.849Z,8.39
2023-03-13T14:40:30.685Z,8.39
2023-03-13T14:43:02.875Z,8.38
2023-03-13T14:45:37.267Z,8.38
2023-03-13T14:48:16.047Z,8.37
2023-03-13T14:50:47.795Z,8.39
2023-03-13T14:53:29.129Z,8.40
2023-03-13T14:56:17.982Z,8.44
2023-03-13T14:58:50.713Z,8.44
2023-03-13T15:01:30.985Z,8.42
2023-03-13T15:04:02.955Z,8.45
2023-03-13T15:06:31.980Z,8.44
2023-03-13T15:09:23.061Z,8.45
2023-03-13T15:12:02.835Z,8.46
2023-03-13T15:14:53.727Z,8.48
2023-03-13T15:17:28.563Z,8.51
2023-03-13T15:19:59.989Z,8.50
2023-03-13T15:22:55.884Z,8.53
2023-03-13T15:25:25.641Z,8.55
2023-03-13T15:27:54.819Z,8.56
2023-03-13T15:30:27.546Z,8.59
2023-03-13T15:32:57.540Z,8.60
2023-03-13T15:35:32.371Z,8.62
2023-03-13T15:38:04.777Z,8.64
2023-03-13T15:40:34.001Z,8.64
2023-03-13T15:43:04.660Z,8.63
2023-03-13T15:45:34.833Z,8.65
2023-03-13T15:48:16.017Z,8.64
2023-03-13T15:51:04.383Z,8.63
2023-03-13T15:53:38.648Z,8.63
2023-03-13T15:56:17.636Z,8.67
2023-03-13T15:58:48.539Z,8.67
2023-03-13T16:01:19.431Z,8.68
2023-03-13T16:03:49.034Z,8.71
2023-03-13T16:06:28.865Z,8.70
2023-03-13T16:09:02.347Z,8.70
2023-03-13T16:11:33.433Z,8.72
2023-03-13T16:14:08.598Z,8.72
2023-03-13T16:16:41.556Z,8.72
2023-03-13T16:19:12.303Z,8.71
2023-03-13T16:21:48.692Z,8.69
2023-03-13T16:24:19.236Z,8.69
2023-03-13T16:26:48.356Z,8.69
2023-03-13T16:29:20.814Z,8.69
2023-03-13T16:31:51.459Z,8.69
2023-03-13T16:34:23.218Z,8.69
2023-03-13T16:36:53.352Z,8.71
2023-03-13T16:39:23.529Z,8.73
2023-03-13T16:41:52.822Z,8.76
2023-03-13T16:44:21.930Z,8.77
2023-03-13T16:47:04.743Z,8.80
2023-03-13T16:49:35.340Z,8.81
2023-03-13T16:52:05.821Z,8.79
2023-03-13T16:54:34.955Z,8.78
2023-03-13T16:57:04.761Z,8.78
2023-03-13T16:59:37.750Z,8.79
2023-03-13T17:02:15.013Z,8.80
2023-03-13T17:04:45.923Z,8.83
2023-03-13T17:07:25.070Z,8.83
2023-03-13T17:09:55.268Z,8.85
2023-03-13T17:12:25.583Z,8.86
2023-03-13T17:14:56.287Z,8.86
2023-03-13T17:17:26.248Z,8.87
2023-03-13T17:19:57.508Z,8.88
2023-03-13T17:22:28.224Z,8.88
2023-03-13T17:25:01.766Z,8.88
2023-03-13T17:27:33.158Z,8.88
2023-03-13T17:30:26.717Z,8.86
2023-03-13T17:32:59.907Z,8.85
2023-03-13T17:35:29.682Z,8.85
2023-03-13T17:38:01.981Z,8.86
2023-03-13T17:40:38.469Z,8.85
2023-03-13T17:43:07.870Z,8.85
2023-03-13T17:45:37.559Z,8.84
2023-03-13T17:48:13.977Z,8.85
2023-03-13T17:50:45.456Z,8.85
2023-03-13T17:53:20.419Z,8.83
2023-03-13T17:55:53.318Z,8.83
2023-03-13T17:58:28.107Z,8.84
2023-03-13T18:00:58.300Z,8.83
2023-03-13T18:03:30.111Z,8.86
2023-03-13T18:06:02.231Z,8.86
2023-03-13T18:08:35.072Z,8.86
2023-03-13T18:11:05.910Z,8.86
2023-03-13T18:13:37.043Z,8.87
2023-03-13T18:16:48.462Z,8.87
2023-03-13T18:19:24.496Z,8.89
2023-03-13T18:21:56.906Z,8.88
2023-03-13T18:24:29.100Z,8.89
2023-03-13T18:27:00.961Z,8.90
2023-03-13T18:29:33.184Z,8.90
2023-03-13T18:32:08.039Z,8.90
2023-03-13T18:34:39.662Z,8.91
2023-03-13T18:37:26.801Z,8.91
2023-03-13T18:39:58.836Z,8.92
2023-03-13T18:42:30.526Z,8.95
2023-03-13T18:45:04.894Z,8.97
2023-03-13T18:47:38.738Z,8.98
2023-03-13T18:50:32.077Z,8.99
2023-03-13T18:53:02.941Z,8.99
2023-03-13T18:55:35.570Z,8.98
2023-03-13T18:58:17.446Z,8.98
2023-03-13T19:00:49.475Z,8.97
2023-03-13T19:03:21.398Z,8.95
2023-03-13T19:05:54.078Z,8.88
2023-03-13T19:08:27.758Z,8.86
2023-03-13T19:11:08.223Z,8.85
2023-03-13T19:13:39.692Z,8.85
2023-03-13T19:16:29.064Z,8.85
2023-03-13T19:19:01.779Z,8.88
2023-03-13T19:21:35.093Z,8.87
2023-03-13T19:24:09.911Z,8.85
2023-03-13T19:26:44.181Z,8.81
2023-03-13T19:29:35.709Z,8.78
2023-03-13T19:32:14.926Z,8.78
2023-03-13T19:34:46.969Z,8.81
2023-03-13T19:37:19.877Z,8.80
2023-03-13T19:39:56.920Z,8.75
2023-03-13T19:42:29.417Z,8.73
2023-03-13T19:45:00.898Z,8.72
2023-03-13T19:47:36.600Z,8.70
2023-03-13T19:50:13.842Z,8.69
2023-03-13T19:52:48.912Z,8.71
2023-03-13T19:55:21.125Z,8.72
2023-03-13T19:57:53.452Z,8.73
2023-03-13T20:00:29.016Z,8.77
2023-03-13T20:03:00.861Z,8.83
2023-03-13T20:05:32.026Z,8.90
2023-03-13T20:08:10.115Z,8.92
2023-03-13T20:10:45.205Z,8.95
2023-03-13T20:13:22.514Z,8.96
2023-03-13T20:15:54.178Z,8.99
2023-03-13T20:18:28.229Z,9.03
2023-03-13T20:21:03.746Z,9.06
2023-03-13T20:23:36.889Z,9.08
2023-03-13T20:26:15.612Z,9.09
2023-03-13T20:28:55.676Z,9.15
2023-03-13T20:31:37.258Z,9.18
2023-03-13T20:34:12.641Z,9.18
2023-03-13T20:36:51.441Z,9.21
2023-03-13T20:39:26.720Z,9.23
2023-03-13T20:42:02.783Z,9.26
2023-03-13T20:44:37.043Z,9.27
2023-03-13T20:47:13.193Z,9.30
2023-03-13T20:49:45.624Z,9.34
2023-03-13T20:52:21.958Z,9.35
2023-03-13T20:54:56.222Z,9.32
2023-03-13T20:57:32.710Z,9.31
2023-03-13T21:00:08.388Z,9.27
2023-03-13T21:02:44.288Z,9.28
2023-03-13T21:05:18.298Z,9.27
2023-03-13T21:07:52.638Z,9.25
2023-03-13T21:10:28.759Z,9.26
2023-03-13T21:13:00.348Z,9.25
2023-03-13T21:15:34.395Z,9.22
2023-03-13T21:18:05.917Z,9.22
2023-03-13T21:20:36.906Z,9.22
2023-03-13T21:23:12.170Z,9.25
2023-03-13T21:25:43.566Z,9.25
2023-03-13T21:28:16.349Z,9.23
2023-03-13T21:30:50.658Z,9.20
2023-03-13T21:33:21.022Z,9.18
2023-03-13T21:35:54.251Z,9.18
2023-03-13T21:38:27.988Z,9.20
2023-03-13T21:41:00.420Z,9.18
2023-03-13T21:43:31.364Z,9.16
2023-03-13T21:46:01.414Z,9.19
2023-03-13T21:48:33.137Z,9.17
2023-03-13T21:51:05.366Z,9.17
2023-03-13T21:53:38.068Z,9.21
2023-03-13T21:56:15.827Z,9.24
2023-03-13T21:58:47.995Z,9.28
2023-03-13T22:01:18.811Z,9.39
2023-03-13T22:03:53.203Z,9.48
2023-03-13T22:06:24.228Z,9.53
2023-03-13T22:08:53.710Z,9.57
2023-03-13T22:11:23.372Z,9.59
2023-03-13T22:13:55.204Z,9.62
2023-03-13T22:16:30.087Z,9.59
2023-03-13T22:19:03.731Z,9.59
2023-03-13T22:21:33.376Z,9.58
2023-03-13T22:24:03.611Z,9.59
2023-03-13T22:26:34.279Z,9.59
2023-03-13T22:29:07.204Z,9.62
2023-03-13T22:31:37.555Z,9.65
2023-03-13T22:34:08.738Z,9.69
2023-03-13T22:36:40.932Z,9.73
2023-03-13T22:39:12.700Z,9.74
2023-03-13T22:41:44.477Z,9.75
2023-03-13T22:44:15.685Z,9.80
2023-03-13T22:46:45.405Z,9.84
2023-03-13T22:49:17.525Z,9.86
2023-03-13T22:51:48.830Z,9.88
2023-03-13T22:54:20.022Z,9.90
2023-03-13T22:56:50.721Z,9.94
2023-03-13T22:59:20.972Z,9.97
2023-03-13T23:01:52.147Z,10.04
2023-03-13T23:04:22.688Z,10.07
2023-03-13T23:06:55.079Z,10.08
2023-03-13T23:09:31.072Z,10.09
2023-03-13T23:12:02.130Z,10.11
2023-03-13T23:14:32.623Z,10.13
2023-03-13T23:17:02.935Z,10.15
2023-03-13T23:19:35.777Z,10.16
2023-03-13T23:22:06.735Z,10.20
2023-03-13T23:24:37.978Z,10.20
2023-03-13T23:27:07.703Z,10.20
2023-03-13T23:29:37.762Z,10.18
2023-03-13T23:32:08.594Z,10.16
2023-03-13T23:34:39.511Z,10.17
2023-03-13T23:37:10.185Z,10.17
2023-03-13T23:39:39.427Z,10.15
2023-03-13T23:42:10.200Z,10.11
2023-03-13T23:44:42.812Z,10.13
2023-03-13T23:47:14.074Z,10.14
2023-03-13T23:49:44.671Z,10.11
2023-03-13T23:52:14.447Z,10.09
2023-03-13T23:54:45.943Z,10.08
2023-03-13T23:57:17.137Z,10.08
2023-03-13T23:59:49.453Z,10.08
